aviador You're here:

CYLD Decoded Metar

CHAPLEAU in ON, CANADA
Report Time2018-07-19 19:00:00
UTC Time2018-07-19 19:18:06
Flight Rules vfr VFR
Wind250° at 08 Gusting to 15 kt
W.Decomp.*RWY 28: 7.5 kt HW 2.9 kt LCW
RWY 23: 7.0 kt HW 3.9 kt RCW
W.Rank250° ranks 13
Current wind is above 250° avg. (6.4)
Visibility9999 m
Phenomena:N/A
Clouds:Broken 280 Hf
Expected CloudBase > 5,600 ft AGL from Temp-Dew spread
Ceiling28,000 ft
Temp26°C (ISA +14)
Dew Point12°C (42% RH)
AAT23.8°C
QNH1015 hPa
Density Alt3,196 ft
Elevation1,467 ft
Report Wrong Elevation
Raw Report
CYLD 191900Z 25008G15KT 200V280 15SM BKN280 26/12 A2997 RMK CI7
CONTRAILS SLP156 DENSITY ALT 3100FT=

Extra information for CYLD:More info

Metar Taf Metar & Taf Last 4 Metars F.Rules Stats Wind Profile Meteogram Temp Stats Airport Information Weather charts Add Link Nearby VenuesMetar ALERT Operation Metar Decoded Social comments